Time;durP1;ratioP1;P1;durP2;ratioP2;P2;SDS_P1;SDS_P2;PMS_P1;PMS_P2;Temp;Humidity;BMP_temperature;BMP_pressure;BME280_temperature;BME280_humidity;BME280_pressure;Samples;Min_cycle;Max_cycle;Signal;HPM_P1;HPM_P2
2023/12/15 00:01:24;;;;;;;1999.90;999.90;;;3.70;99.90;;;;;;5043878;28;20107;-79
2023/12/15 00:03:50;;;;;;;1999.90;999.90;;;3.70;99.90;;;;;;5043406;28;20750;-77
2023/12/15 00:06:16;;;;;;;1999.90;999.90;;;3.70;99.90;;;;;;5042641;28;20037;-77
2023/12/15 00:08:41;;;;;;;1999.90;999.90;;;3.60;99.90;;;;;;5045920;28;20033;-79
2023/12/15 00:11:07;;;;;;;1999.90;999.90;;;3.50;99.90;;;;;;5046675;28;20029;-81
2023/12/15 00:13:33;;;;;;;1999.90;999.90;;;3.40;99.90;;;;;;5045990;28;20112;-79
2023/12/15 00:15:58;;;;;;;1999.90;999.90;;;3.30;99.90;;;;;;5046269;28;20112;-76
2023/12/15 00:18:24;;;;;;;1999.90;999.90;;;3.20;99.90;;;;;;5041561;28;20047;-77
2023/12/15 00:20:49;;;;;;;1999.90;999.90;;;3.10;99.90;;;;;;5060156;28;20060;-78
2023/12/15 00:23:15;;;;;;;1999.90;999.90;;;3.00;99.90;;;;;;5045953;28;20032;-77
2023/12/15 00:25:41;;;;;;;1999.90;999.90;;;2.90;99.90;;;;;;5042833;28;20033;-76
2023/12/15 00:28:07;;;;;;;1999.90;999.90;;;2.90;99.90;;;;;;5042792;28;20525;-79
2023/12/15 00:30:32;;;;;;;1999.90;999.90;;;2.90;99.90;;;;;;5044706;28;20029;-76
2023/12/15 00:32:58;;;;;;;1999.90;999.90;;;3.00;99.90;;;;;;5046607;28;20040;-78
2023/12/15 00:35:24;;;;;;;1999.90;999.90;;;3.10;99.90;;;;;;5041532;28;20026;-76
2023/12/15 00:37:49;;;;;;;1999.90;999.90;;;3.10;99.90;;;;;;5041766;28;20040;-78
2023/12/15 00:40:16;;;;;;;1999.90;999.90;;;3.20;99.90;;;;;;5043690;28;20029;-78
2023/12/15 00:42:42;;;;;;;1999.90;999.90;;;3.20;99.90;;;;;;5042876;28;20034;-76
2023/12/15 00:45:08;;;;;;;1999.90;999.90;;;3.10;99.90;;;;;;5044342;28;20186;-77
2023/12/15 00:47:34;;;;;;;1999.90;999.90;;;3.10;99.90;;;;;;5027014;28;20444;-77
2023/12/15 00:49:59;;;;;;;1999.90;999.90;;;3.10;99.90;;;;;;5041357;28;20155;-76
2023/12/15 00:52:25;;;;;;;1999.90;999.90;;;3.10;99.90;;;;;;5041887;28;20100;-74
2023/12/15 00:54:51;;;;;;;1999.90;999.90;;;3.10;99.90;;;;;;5041920;28;20037;-77
2023/12/15 00:57:17;;;;;;;1999.90;999.90;;;3.10;99.90;;;;;;5046627;28;20036;-77
2023/12/15 00:59:43;;;;;;;1999.90;999.90;;;3.10;99.90;;;;;;5049478;28;20067;-76
2023/12/15 01:02:09;;;;;;;1999.90;999.90;;;3.00;99.90;;;;;;5048936;28;20033;-76
2023/12/15 01:04:35;;;;;;;1999.90;999.90;;;2.80;99.90;;;;;;5047243;28;20044;-79
2023/12/15 01:07:01;;;;;;;1999.90;999.90;;;2.70;99.90;;;;;;5048651;28;20116;-79
2023/12/15 01:09:27;;;;;;;1999.90;999.90;;;2.70;99.90;;;;;;5049415;28;20040;-78
2023/12/15 01:11:52;;;;;;;1999.90;999.90;;;2.80;99.90;;;;;;5048706;28;20032;-78
2023/12/15 01:14:20;;;;;;;1999.90;999.90;;;2.90;99.90;;;;;;5046251;28;20040;-77
2023/12/15 01:16:46;;;;;;;1999.90;999.90;;;3.00;99.90;;;;;;5060125;28;20518;-78
2023/12/15 01:19:13;;;;;;;1999.90;999.90;;;3.00;99.90;;;;;;5045918;28;20524;-77
2023/12/15 01:21:38;;;;;;;1999.90;999.90;;;3.10;99.90;;;;;;5049873;28;20029;-77
2023/12/15 01:24:05;;;;;;;1999.90;999.90;;;3.10;99.90;;;;;;5044826;28;20102;-79
2023/12/15 01:26:30;;;;;;;1999.90;999.90;;;3.10;99.90;;;;;;5044490;28;20510;-76
2023/12/15 01:28:56;;;;;;;1999.90;999.90;;;3.10;99.90;;;;;;5048137;28;20037;-79
2023/12/15 01:31:22;;;;;;;1999.90;999.90;;;3.10;99.90;;;;;;5046281;28;20544;-77
2023/12/15 01:33:47;;;;;;;1999.90;999.90;;;3.10;99.90;;;;;;5042065;28;20022;-77
2023/12/15 01:36:13;;;;;;;1999.90;999.90;;;3.00;99.90;;;;;;5046222;28;20515;-76
2023/12/15 01:38:39;;;;;;;1999.90;999.90;;;3.00;99.90;;;;;;5044791;28;20665;-76
2023/12/15 01:41:05;;;;;;;1999.90;999.90;;;3.00;99.90;;;;;;5045294;28;20514;-77
2023/12/15 01:43:30;;;;;;;1999.90;999.90;;;3.10;99.90;;;;;;5046091;28;20036;-77
2023/12/15 01:45:56;;;;;;;1999.90;999.90;;;3.10;99.90;;;;;;5045378;28;20368;-78
2023/12/15 01:48:25;;;;;;;1999.90;999.90;;;3.10;99.90;;;;;;5048217;28;20423;-76
2023/12/15 01:50:51;;;;;;;1999.90;999.90;;;3.00;99.90;;;;;;5042540;28;20028;-77
2023/12/15 01:53:16;;;;;;;1999.90;999.90;;;3.00;99.90;;;;;;5045897;28;20727;-77
2023/12/15 01:55:43;;;;;;;1999.90;999.90;;;3.10;99.90;;;;;;5044631;28;20032;-76
2023/12/15 01:58:11;;;;;;;1999.90;999.90;;;3.10;99.90;;;;;;5045450;28;20543;-77
2023/12/15 02:00:37;;;;;;;1999.90;999.90;;;3.20;99.90;;;;;;5046170;28;20041;-78
2023/12/15 02:03:03;;;;;;;1999.90;999.90;;;3.10;99.90;;;;;;5047212;28;20100;-78
2023/12/15 02:05:29;;;;;;;1999.90;999.90;;;3.20;99.90;;;;;;5045621;28;20449;-76
2023/12/15 02:07:54;;;;;;;1999.90;999.90;;;3.10;99.90;;;;;;5046320;28;20037;-78
2023/12/15 02:10:20;;;;;;;1999.90;999.90;;;3.00;99.90;;;;;;5043631;28;20116;-79
2023/12/15 02:12:46;;;;;;;1999.90;999.90;;;3.10;99.90;;;;;;5043029;28;20044;-76
2023/12/15 02:15:12;;;;;;;1999.90;999.90;;;3.20;99.90;;;;;;5047238;28;20036;-76
2023/12/15 02:17:38;;;;;;;1999.90;999.90;;;3.20;99.80;;;;;;5047552;28;20390;-81
2023/12/15 02:20:04;;;;;;;1999.90;999.90;;;3.20;99.90;;;;;;5041794;28;20490;-78
2023/12/15 02:22:30;;;;;;;1999.90;999.90;;;3.20;99.70;;;;;;5044589;28;20033;-78
2023/12/15 02:24:56;;;;;;;1999.90;999.90;;;3.30;98.90;;;;;;5027553;28;20388;-76
2023/12/15 02:27:21;;;;;;;1999.90;999.90;;;3.30;98.90;;;;;;5042024;28;20203;-76
2023/12/15 02:29:47;;;;;;;1999.90;999.90;;;3.20;98.80;;;;;;5044486;28;20469;-77
2023/12/15 02:32:13;;;;;;;1999.90;999.90;;;3.10;98.80;;;;;;5048188;28;20020;-78
2023/12/15 02:34:39;;;;;;;1999.90;999.90;;;3.20;98.30;;;;;;5046912;28;20394;-75
2023/12/15 02:37:04;;;;;;;1999.90;999.90;;;3.10;98.50;;;;;;5044644;28;20028;-76
2023/12/15 02:39:31;;;;;;;1999.90;999.90;;;3.10;98.70;;;;;;5047509;28;20487;-78
2023/12/15 02:41:57;;;;;;;1999.90;999.90;;;3.10;98.70;;;;;;5042890;28;20040;-77
2023/12/15 02:44:28;;;;;;;1999.90;999.90;;;3.10;98.40;;;;;;5044081;28;20048;-77
2023/12/15 02:46:54;;;;;;;1999.90;999.90;;;3.00;98.50;;;;;;5038411;28;20036;-78
2023/12/15 02:49:19;;;;;;;1999.90;999.90;;;2.90;98.60;;;;;;5043674;28;20048;-76
2023/12/15 02:51:45;;;;;;;1999.90;999.90;;;2.90;98.80;;;;;;5044693;28;20028;-76
2023/12/15 02:54:11;;;;;;;1999.90;999.90;;;3.00;99.00;;;;;;5044441;28;20063;-77
2023/12/15 02:56:36;;;;;;;1999.90;999.90;;;3.00;98.90;;;;;;5045991;28;20040;-77
2023/12/15 02:59:03;;;;;;;1999.90;999.90;;;3.00;99.00;;;;;;5046779;28;20437;-75
2023/12/15 03:01:29;;;;;;;1999.90;999.90;;;3.10;98.60;;;;;;5045023;28;20040;-79
2023/12/15 03:03:55;;;;;;;1999.90;999.90;;;3.10;98.70;;;;;;5045763;28;20025;-76
2023/12/15 03:06:20;;;;;;;1999.90;999.90;;;3.10;98.70;;;;;;5045767;28;20050;-77
2023/12/15 03:08:46;;;;;;;1999.90;999.90;;;3.00;98.80;;;;;;5043270;28;20030;-76
2023/12/15 03:11:13;;;;;;;1999.90;999.90;;;3.00;98.40;;;;;;5042226;28;20033;-77
2023/12/15 03:13:39;;;;;;;1999.90;999.90;;;3.00;98.20;;;;;;5046533;28;20072;-76
2023/12/15 03:16:10;;;;;;;1999.90;999.90;;;3.00;98.20;;;;;;5040979;28;20486;-75
2023/12/15 03:18:37;;;;;;;1999.90;999.90;;;3.00;98.10;;;;;;5026681;28;20575;-77
2023/12/15 03:21:03;;;;;;;1999.90;999.90;;;2.90;98.30;;;;;;5045297;28;20040;-76
2023/12/15 03:23:29;;;;;;;1999.90;999.90;;;2.90;97.80;;;;;;5044748;28;20056;-77
2023/12/15 03:25:55;;;;;;;1999.90;999.90;;;2.90;97.90;;;;;;5044156;28;20677;-76
2023/12/15 03:28:20;;;;;;;1999.90;999.90;;;2.90;97.70;;;;;;5040999;28;20111;-75
2023/12/15 03:30:46;;;;;;;1999.90;999.90;;;3.00;97.40;;;;;;5044410;28;20087;-76
2023/12/15 03:33:12;;;;;;;1999.90;999.90;;;3.00;97.10;;;;;;5040799;28;20025;-75
2023/12/15 03:35:38;;;;;;;1999.90;999.90;;;3.00;96.90;;;;;;5043060;28;20025;-77
2023/12/15 03:38:05;;;;;;;1999.90;999.90;;;2.90;96.60;;;;;;5028967;28;20025;-79
2023/12/15 03:40:31;;;;;;;1999.90;999.90;;;2.90;96.70;;;;;;5045516;28;20086;-76
2023/12/15 03:42:56;;;;;;;1999.90;999.90;;;2.90;97.20;;;;;;5042628;28;20112;-77
2023/12/15 03:45:25;;;;;;;1999.90;999.90;;;2.90;97.20;;;;;;5046095;28;20156;-76
2023/12/15 03:47:51;;;;;;;1999.90;999.90;;;2.90;97.00;;;;;;5042090;28;20187;-77
2023/12/15 03:50:20;;;;;;;1999.90;999.90;;;2.80;97.00;;;;;;5046802;28;20875;-75
2023/12/15 03:52:45;;;;;;;1999.90;999.90;;;2.70;97.10;;;;;;5045667;28;20033;-77
2023/12/15 03:55:11;;;;;;;1999.90;999.90;;;2.80;97.30;;;;;;5060343;28;20026;-80
2023/12/15 03:57:37;;;;;;;1999.90;999.90;;;2.80;97.30;;;;;;5045698;28;20526;-75
2023/12/15 04:00:03;;;;;;;1999.90;999.90;;;2.80;97.40;;;;;;5046545;28;20078;-76
2023/12/15 04:02:28;;;;;;;1999.90;999.90;;;2.80;97.70;;;;;;5044751;28;20087;-76
2023/12/15 04:04:55;;;;;;;1999.90;999.90;;;2.70;97.40;;;;;;5041377;28;20126;-77
2023/12/15 04:07:20;;;;;;;1999.90;999.90;;;2.80;97.60;;;;;;5045553;28;20515;-76
2023/12/15 04:09:49;;;;;;;1999.90;999.90;;;2.80;97.80;;;;;;5041998;28;20123;-76
2023/12/15 04:12:14;;;;;;;1999.90;999.90;;;2.80;97.60;;;;;;5044314;28;20570;-76
2023/12/15 04:14:40;;;;;;;1999.90;999.90;;;2.80;97.30;;;;;;5041297;28;20039;-77
2023/12/15 04:17:08;;;;;;;1999.90;999.90;;;2.70;97.20;;;;;;5044374;28;20514;-75
2023/12/15 04:19:34;;;;;;;1999.90;999.90;;;2.70;96.80;;;;;;5042256;28;20491;-76
2023/12/15 04:21:59;;;;;;;1999.90;999.90;;;2.70;96.70;;;;;;5046046;28;20143;-76
2023/12/15 04:24:25;;;;;;;1999.90;999.90;;;2.60;96.40;;;;;;5044689;28;20601;-76
2023/12/15 04:26:51;;;;;;;1999.90;999.90;;;2.70;96.80;;;;;;5043480;28;20036;-76
2023/12/15 04:29:17;;;;;;;1999.90;999.90;;;2.80;96.70;;;;;;5041798;28;20033;-75
2023/12/15 04:31:43;;;;;;;1999.90;999.90;;;2.70;96.80;;;;;;5046285;28;20025;-77
2023/12/15 04:34:09;;;;;;;1999.90;999.90;;;2.70;96.60;;;;;;5047748;28;20040;-78
2023/12/15 04:36:35;;;;;;;1999.90;999.90;;;2.70;96.70;;;;;;5040992;28;20033;-78
2023/12/15 04:39:00;;;;;;;1999.90;999.90;;;2.80;96.40;;;;;;5046941;28;20037;-75
2023/12/15 04:41:27;;;;;;;1999.90;999.90;;;2.80;96.30;;;;;;5046822;28;20518;-77
2023/12/15 04:43:52;;;;;;;1999.90;999.90;;;2.90;96.00;;;;;;5044892;28;20444;-78
2023/12/15 04:46:31;;;;;;;1999.90;999.90;;;2.90;96.00;;;;;;5044765;28;20111;-76
2023/12/15 04:48:59;;;;;;;1999.90;999.90;;;2.90;96.10;;;;;;5049202;28;20045;-76
2023/12/15 04:51:26;;;;;;;1999.90;999.90;;;2.80;96.00;;;;;;5050238;28;20037;-75
2023/12/15 04:53:51;;;;;;;1999.90;999.90;;;2.70;96.00;;;;;;5048170;28;20039;-77
2023/12/15 04:56:17;;;;;;;1999.90;999.90;;;2.60;95.90;;;;;;5048970;28;20032;-76
2023/12/15 04:58:44;;;;;;;1999.90;999.90;;;2.50;96.10;;;;;;5046062;28;20522;-77
2023/12/15 05:01:12;;;;;;;1999.90;999.90;;;2.60;96.20;;;;;;5047905;28;20044;-75
2023/12/15 05:03:42;;;;;;;1999.90;999.90;;;2.50;96.20;;;;;;5049508;28;20083;-75
2023/12/15 05:06:22;;;;;;;1999.90;999.90;;;2.50;96.50;;;;;;5047985;28;20464;-76
2023/12/15 05:08:49;;;;;;;1999.90;999.90;;;2.50;96.50;;;;;;5046018;28;20116;-78
2023/12/15 05:11:15;;;;;;;1999.90;999.90;;;2.60;96.40;;;;;;5048340;28;20072;-77
2023/12/15 05:13:41;;;;;;;1999.90;999.90;;;2.60;96.30;;;;;;5048080;28;20092;-76
2023/12/15 05:16:07;;;;;;;1999.90;999.90;;;2.60;95.90;;;;;;5047254;28;20036;-78
2023/12/15 05:18:33;;;;;;;1999.90;999.90;;;2.60;95.70;;;;;;5045258;28;20029;-76
2023/12/15 05:20:59;;;;;;;1999.90;999.90;;;2.60;95.60;;;;;;5047611;28;20048;-76
2023/12/15 05:23:25;;;;;;;1999.90;999.90;;;2.60;95.60;;;;;;5046135;28;20033;-77
2023/12/15 05:25:51;;;;;;;1999.90;999.90;;;2.70;95.70;;;;;;5047545;28;20032;-78
2023/12/15 05:28:20;;;;;;;1999.90;999.90;;;2.70;95.80;;;;;;5062397;28;20033;-77
2023/12/15 05:30:45;;;;;;;1999.90;999.90;;;2.80;95.80;;;;;;5048112;28;20017;-75
2023/12/15 05:33:11;;;;;;;1999.90;999.90;;;2.70;95.70;;;;;;5046197;28;20039;-76
2023/12/15 05:35:37;;;;;;;1999.90;999.90;;;2.70;95.70;;;;;;5048277;28;20163;-77
2023/12/15 05:38:03;;;;;;;1999.90;999.90;;;2.70;95.60;;;;;;5049126;28;20037;-76
2023/12/15 05:40:29;;;;;;;1999.90;999.90;;;2.80;95.70;;;;;;5043073;28;20459;-79
2023/12/15 05:42:55;;;;;;;1999.90;999.90;;;2.70;95.80;;;;;;5046540;28;20029;-75
2023/12/15 05:45:20;;;;;;;1999.90;999.90;;;2.70;95.80;;;;;;5046515;28;20043;-74
2023/12/15 05:47:47;;;;;;;1999.90;999.90;;;2.70;95.60;;;;;;5046354;28;20503;-75
2023/12/15 05:50:13;;;;;;;1999.90;999.90;;;2.70;95.60;;;;;;5045626;28;20424;-80
2023/12/15 05:52:39;;;;;;;1999.90;999.90;;;2.70;95.60;;;;;;5026779;28;20141;-79
2023/12/15 05:55:05;;;;;;;1999.90;999.90;;;2.70;95.50;;;;;;5045412;28;20048;-78
2023/12/15 05:57:31;;;;;;;1999.90;999.90;;;2.70;95.30;;;;;;5042928;28;20050;-80
2023/12/15 06:00:00;;;;;;;1999.90;999.90;;;2.70;95.80;;;;;;5029310;28;20221;-84
2023/12/15 06:02:25;;;;;;;1999.90;999.90;;;2.70;95.60;;;;;;5044633;28;20029;-79
2023/12/15 06:04:51;;;;;;;1999.90;999.90;;;2.70;95.30;;;;;;5044218;28;20029;-79
2023/12/15 06:07:18;;;;;;;1999.90;999.90;;;2.70;95.20;;;;;;5028566;28;20435;-80
2023/12/15 06:09:43;;;;;;;1999.90;999.90;;;2.70;95.10;;;;;;5047855;28;20040;-83
2023/12/15 06:12:09;;;;;;;1999.90;999.90;;;2.80;94.80;;;;;;5045423;28;20029;-82
2023/12/15 06:14:38;;;;;;;1999.90;999.90;;;2.80;94.80;;;;;;5044827;28;20696;-74
2023/12/15 06:17:07;;;;;;;1999.90;999.90;;;2.80;94.60;;;;;;5043427;28;20115;-74
2023/12/15 06:19:37;;;;;;;1999.90;999.90;;;2.70;94.50;;;;;;5042607;28;20048;-77
2023/12/15 06:22:03;;;;;;;1999.90;999.90;;;2.60;94.40;;;;;;5045881;28;20029;-77
2023/12/15 06:24:29;;;;;;;1999.90;999.90;;;2.60;94.50;;;;;;5044493;28;20527;-80
2023/12/15 06:26:54;;;;;;;1999.90;999.90;;;2.60;94.50;;;;;;5043149;28;20028;-87
2023/12/15 06:29:23;;;;;;;1999.90;999.90;;;2.60;94.50;;;;;;5042540;28;20029;-84
2023/12/15 06:31:49;;;;;;;1999.90;999.90;;;2.70;94.60;;;;;;5044106;28;20079;-84
2023/12/15 06:34:14;;;;;;;1999.90;999.90;;;2.60;95.20;;;;;;5025888;28;20049;-78
2023/12/15 06:36:40;;;;;;;1999.90;999.90;;;2.60;94.80;;;;;;5041483;28;20386;-75
2023/12/15 06:39:08;;;;;;;1999.90;999.90;;;2.70;95.20;;;;;;5043301;28;20115;-84
2023/12/15 06:41:34;;;;;;;1999.90;999.90;;;2.60;95.20;;;;;;5045849;28;20037;-77
2023/12/15 06:43:59;;;;;;;1999.90;999.90;;;2.60;95.30;;;;;;5045757;28;20784;-76
2023/12/15 06:46:26;;;;;;;1999.90;999.90;;;2.60;95.10;;;;;;5045205;28;20033;-78
2023/12/15 06:48:53;;;;;;;1999.90;999.90;;;2.60;95.30;;;;;;5041943;28;20056;-78
2023/12/15 06:51:19;;;;;;;1999.90;999.90;;;2.50;95.40;;;;;;5044338;28;20025;-77
2023/12/15 06:53:45;;;;;;;1999.90;999.90;;;2.50;95.50;;;;;;5057950;28;20052;-77
2023/12/15 06:56:11;;;;;;;1999.90;999.90;;;2.50;95.90;;;;;;5046838;28;20028;-78
2023/12/15 06:58:36;;;;;;;1999.90;999.90;;;2.50;95.40;;;;;;5045836;28;20440;-76
2023/12/15 07:01:02;;;;;;;1999.90;999.90;;;2.50;95.40;;;;;;5045785;28;20041;-77
2023/12/15 07:03:28;;;;;;;1999.90;999.90;;;2.50;95.40;;;;;;5045779;28;20036;-77
2023/12/15 07:05:54;;;;;;;1999.90;999.90;;;2.50;95.30;;;;;;5043960;28;20144;-76
2023/12/15 07:08:20;;;;;;;1999.90;999.90;;;2.60;95.50;;;;;;5041555;28;20162;-79
2023/12/15 07:10:46;;;;;;;1999.90;999.90;;;2.70;95.60;;;;;;5047285;28;20032;-77
2023/12/15 07:13:11;;;;;;;1999.90;999.90;;;2.60;95.20;;;;;;5044829;28;20767;-76
2023/12/15 07:15:37;;;;;;;1999.90;999.90;;;2.60;94.80;;;;;;5042928;28;20041;-76
2023/12/15 07:18:03;;;;;;;1999.90;999.90;;;2.60;95.00;;;;;;5045047;28;20029;-78
2023/12/15 07:20:29;;;;;;;1999.90;999.90;;;2.60;94.80;;;;;;5044127;28;20041;-76
2023/12/15 07:22:54;;;;;;;1999.90;999.90;;;2.60;94.70;;;;;;5043221;28;20837;-77
2023/12/15 07:25:20;;;;;;;1999.90;999.90;;;2.60;94.80;;;;;;5044824;28;20025;-79
2023/12/15 07:27:46;;;;;;;1999.90;999.90;;;2.60;94.40;;;;;;5045733;28;20098;-76
2023/12/15 07:30:12;;;;;;;1999.90;999.90;;;2.60;94.30;;;;;;5043894;28;20118;-75
2023/12/15 07:32:38;;;;;;;1999.90;999.90;;;2.60;94.40;;;;;;5044406;28;20040;-76
2023/12/15 07:35:05;;;;;;;1999.90;999.90;;;2.70;94.10;;;;;;5042243;28;20078;-75
2023/12/15 07:37:31;;;;;;;1999.90;999.90;;;2.70;94.20;;;;;;5044892;28;20036;-77
2023/12/15 07:39:56;;;;;;;1999.90;999.90;;;2.70;94.30;;;;;;5045240;28;20037;-75
2023/12/15 07:42:22;;;;;;;1999.90;999.90;;;2.70;94.50;;;;;;5045589;28;20082;-76
2023/12/15 07:44:48;;;;;;;1999.90;999.90;;;2.70;94.70;;;;;;5046827;28;20036;-76
2023/12/15 07:47:13;;;;;;;1999.90;999.90;;;2.70;94.50;;;;;;5044201;28;20083;-76
2023/12/15 07:49:39;;;;;;;1999.90;999.90;;;2.80;94.70;;;;;;5043801;28;20029;-76
2023/12/15 07:52:05;;;;;;;1999.90;999.90;;;2.70;94.50;;;;;;5043134;28;20261;-75
2023/12/15 07:54:31;;;;;;;1999.90;999.90;;;2.70;94.70;;;;;;5043295;28;20094;-75
2023/12/15 07:56:57;;;;;;;1999.90;999.90;;;2.70;94.70;;;;;;5042542;28;20467;-77
2023/12/15 07:59:23;;;;;;;1999.90;999.90;;;2.70;94.60;;;;;;5045074;28;20037;-76
2023/12/15 08:01:50;;;;;;;1999.90;999.90;;;2.70;94.70;;;;;;5043780;28;20582;-74
2023/12/15 08:04:16;;;;;;;1999.90;999.90;;;2.70;94.70;;;;;;5045602;28;20034;-76
2023/12/15 08:06:42;;;;;;;1999.90;999.90;;;2.70;94.70;;;;;;5048363;28;20119;-75
2023/12/15 08:09:10;;;;;;;1999.90;999.90;;;2.70;94.70;;;;;;5047368;28;20036;-77
2023/12/15 08:11:37;;;;;;;1999.90;999.90;;;2.80;95.10;;;;;;5049090;28;20134;-76
2023/12/15 08:14:03;;;;;;;1999.90;999.90;;;2.80;94.80;;;;;;5046351;28;20049;-76
2023/12/15 08:16:33;;;;;;;1999.90;999.90;;;2.80;94.90;;;;;;5049271;28;20633;-79
2023/12/15 08:18:59;;;;;;;1999.90;999.90;;;2.90;94.80;;;;;;5047720;28;20087;-77
2023/12/15 08:21:25;;;;;;;1999.90;999.90;;;2.80;94.70;;;;;;5046922;28;20049;-76
2023/12/15 08:23:50;;;;;;;1999.90;999.90;;;2.80;94.60;;;;;;5049160;28;20507;-76
2023/12/15 08:26:23;;;;;;;1999.90;999.90;;;2.80;94.80;;;;;;5048728;28;20044;-77
2023/12/15 08:28:49;;;;;;;1999.90;999.90;;;2.90;94.60;;;;;;5047091;28;20041;-80
2023/12/15 08:31:16;;;;;;;1999.90;999.90;;;2.90;94.40;;;;;;5046971;28;20510;-76
2023/12/15 08:33:42;;;;;;;1999.90;999.90;;;3.00;94.60;;;;;;5062577;28;20029;-79
2023/12/15 08:36:09;;;;;;;1999.90;999.90;;;2.90;94.40;;;;;;5047084;28;20406;-78
2023/12/15 08:38:35;;;;;;;1999.90;999.90;;;3.00;94.70;;;;;;5047671;28;20040;-80
2023/12/15 08:41:01;;;;;;;1999.90;999.90;;;3.10;94.60;;;;;;5048061;28;20029;-76
2023/12/15 08:43:27;;;;;;;1999.90;999.90;;;3.10;94.60;;;;;;5048665;28;20129;-76
2023/12/15 08:45:53;;;;;;;1999.90;999.90;;;3.20;94.40;;;;;;5049468;28;20033;-75
2023/12/15 08:48:19;;;;;;;1999.90;999.90;;;3.30;94.30;;;;;;5046491;28;20056;-79
2023/12/15 08:50:44;;;;;;;1999.90;999.90;;;3.30;94.00;;;;;;5047536;28;20033;-78
2023/12/15 08:53:12;;;;;;;1999.90;999.90;;;3.30;93.90;;;;;;5047815;28;20024;-80
2023/12/15 08:55:38;;;;;;;1999.90;999.90;;;3.40;93.90;;;;;;5048275;28;20429;-77
2023/12/15 08:58:04;;;;;;;1999.90;999.90;;;3.50;93.90;;;;;;5047796;28;20575;-77
2023/12/15 09:00:29;;;;;;;1999.90;999.90;;;3.60;93.60;;;;;;5046180;28;20037;-78
2023/12/15 09:02:55;;;;;;;1999.90;999.90;;;3.60;93.70;;;;;;5046904;28;20372;-76
2023/12/15 09:05:23;;;;;;;1999.90;999.90;;;3.70;93.60;;;;;;5044392;28;20110;-72
2023/12/15 09:07:51;;;;;;;1999.90;999.90;;;3.80;93.30;;;;;;5047163;28;20037;-72
2023/12/15 09:10:17;;;;;;;1999.90;999.90;;;3.90;93.40;;;;;;5046393;28;20154;-73
2023/12/15 09:12:43;;;;;;;1999.90;999.90;;;3.90;93.30;;;;;;5048804;28;20040;-72
2023/12/15 09:15:09;;;;;;;1999.90;999.90;;;3.90;93.00;;;;;;5047082;28;20024;-73
2023/12/15 09:17:34;;;;;;;1999.90;999.90;;;3.90;92.90;;;;;;5045721;28;20427;-72
2023/12/15 09:20:00;;;;;;;1999.90;999.90;;;3.90;92.90;;;;;;5047905;28;20048;-72
2023/12/15 09:22:26;;;;;;;1999.90;999.90;;;3.90;93.00;;;;;;5048103;28;20037;-72
2023/12/15 09:24:51;;;;;;;1999.90;999.90;;;3.90;93.20;;;;;;5045215;28;20509;-72
2023/12/15 09:27:17;;;;;;;1999.90;999.90;;;4.00;92.80;;;;;;5044807;28;20039;-73
2023/12/15 09:29:43;;;;;;;1999.90;999.90;;;4.00;92.90;;;;;;5046174;28;20033;-73
2023/12/15 09:32:09;;;;;;;1999.90;999.90;;;4.20;93.20;;;;;;5047353;28;20021;-73
2023/12/15 09:34:35;;;;;;;1999.90;999.90;;;4.20;92.50;;;;;;5048968;28;20052;-72
2023/12/15 09:37:01;;;;;;;1999.90;999.90;;;4.30;92.50;;;;;;5046648;28;20029;-73
2023/12/15 09:39:26;;;;;;;1999.90;999.90;;;4.30;92.30;;;;;;5046300;28;20044;-73
2023/12/15 09:41:52;;;;;;;1999.90;999.90;;;4.10;91.90;;;;;;5046427;28;20033;-72
2023/12/15 09:44:19;;;;;;;1999.90;999.90;;;4.40;92.10;;;;;;5043669;28;20042;-73
2023/12/15 09:46:45;;;;;;;1999.90;999.90;;;4.30;92.10;;;;;;5043323;28;20104;-73
2023/12/15 09:49:15;;;;;;;1999.90;999.90;;;4.60;92.80;;;;;;5045031;28;20520;-73
2023/12/15 09:51:47;;;;;;;1999.90;999.90;;;4.70;92.10;;;;;;5043651;28;20136;-72
2023/12/15 09:54:13;;;;;;;1999.90;999.90;;;4.70;91.30;;;;;;5048011;28;20078;-72
2023/12/15 09:56:39;;;;;;;1999.90;999.90;;;4.90;91.90;;;;;;5045196;28;20033;-72
2023/12/15 09:59:05;;;;;;;1999.90;999.90;;;4.70;91.10;;;;;;5048163;28;20037;-72
2023/12/15 10:01:31;;;;;;;1999.90;999.90;;;4.80;91.20;;;;;;5045177;28;20487;-72
2023/12/15 10:03:57;;;;;;;1999.90;999.90;;;4.90;91.30;;;;;;5046054;28;20024;-72
2023/12/15 10:06:24;;;;;;;1999.90;999.90;;;5.00;91.30;;;;;;5043713;28;20044;-73
2023/12/15 10:08:49;;;;;;;1999.90;999.90;;;5.10;91.30;;;;;;5045692;28;20062;-72
2023/12/15 10:11:18;;;;;;;1999.90;999.90;;;5.10;90.40;;;;;;5046060;28;20443;-72
2023/12/15 10:13:44;;;;;;;1999.90;999.90;;;5.10;90.70;;;;;;5046263;28;20506;-73
2023/12/15 10:16:11;;;;;;;1999.90;999.90;;;5.20;90.50;;;;;;5047428;28;20041;-73
2023/12/15 10:18:40;;;;;;;1999.90;999.90;;;5.30;90.70;;;;;;5041938;28;20037;-72
2023/12/15 10:21:07;;;;;;;1999.90;999.90;;;5.20;89.00;;;;;;5047465;28;20029;-78
2023/12/15 10:23:32;;;;;;;1999.90;999.90;;;5.20;90.00;;;;;;5043859;28;20047;-78
2023/12/15 10:25:59;;;;;;;1999.90;999.90;;;5.20;89.20;;;;;;5045659;28;20036;-79
2023/12/15 10:28:25;;;;;;;1999.90;999.90;;;5.30;89.00;;;;;;5028942;28;20044;-78
2023/12/15 10:30:51;;;;;;;1999.90;999.90;;;5.50;89.90;;;;;;5046271;28;20021;-78
2023/12/15 10:33:18;;;;;;;1999.90;999.90;;;5.60;89.30;;;;;;5045704;28;20017;-78
2023/12/15 10:35:47;;;;;;;1999.90;999.90;;;5.70;88.10;;;;;;5044770;28;20056;-82
2023/12/15 10:38:15;;;;;;;1999.90;999.90;;;5.60;87.70;;;;;;5047501;28;20156;-84
2023/12/15 10:40:42;;;;;;;1999.90;999.90;;;5.70;86.80;;;;;;5044760;28;20028;-81
2023/12/15 10:43:10;;;;;;;1999.90;999.90;;;5.80;87.60;;;;;;5046228;28;20550;-79
2023/12/15 10:45:36;;;;;;;1999.90;999.90;;;6.00;87.80;;;;;;5046237;28;20034;-80
2023/12/15 10:48:03;;;;;;;1999.90;999.90;;;6.00;87.00;;;;;;5046321;28;20045;-83
2023/12/15 10:50:30;;;;;;;1999.90;999.90;;;5.90;86.20;;;;;;5045355;28;20018;-82
2023/12/15 10:52:57;;;;;;;1999.90;999.90;;;5.80;86.40;;;;;;5045208;28;20029;-81
2023/12/15 10:55:25;;;;;;;1999.90;999.90;;;5.70;84.80;;;;;;5044735;28;20025;-82
2023/12/15 10:57:58;;;;;;;1999.90;999.90;;;6.00;86.00;;;;;;5028802;28;20124;-81
2023/12/15 11:00:23;;;;;;;1999.90;999.90;;;6.10;85.30;;;;;;5044926;28;20033;-83
2023/12/15 11:02:51;;;;;;;1999.90;999.90;;;6.20;84.50;;;;;;5045838;28;20041;-83
2023/12/15 11:05:17;;;;;;;1999.90;999.90;;;5.90;84.00;;;;;;5030774;28;20178;-80
2023/12/15 11:07:43;;;;;;;1999.90;999.90;;;5.70;83.80;;;;;;5046064;28;20068;-82
2023/12/15 11:10:12;;;;;;;1999.90;999.90;;;5.50;84.30;;;;;;5044228;28;20709;-82
2023/12/15 11:12:40;;;;;;;1999.90;999.90;;;5.40;84.80;;;;;;5042699;28;20279;-81
2023/12/15 11:15:13;;;;;;;1999.90;999.90;;;5.70;86.10;;;;;;5045037;28;20055;-78
2023/12/15 11:17:45;;;;;;;1999.90;999.90;;;5.50;84.80;;;;;;5043133;28;20589;-81
2023/12/15 11:20:24;;;;;;;1999.90;999.90;;;5.80;85.80;;;;;;5026591;28;20351;-82
2023/12/15 11:23:05;;;;;;;1999.90;999.90;;;5.80;83.90;;;;;;5042057;28;20037;-76
2023/12/15 11:25:34;;;;;;;1999.90;999.90;;;5.80;83.60;;;;;;5046110;28;20045;-76
2023/12/15 11:28:15;;;;;;;1999.90;999.90;;;5.90;82.70;;;;;;5045144;28;20029;-77
2023/12/15 11:30:48;;;;;;;1999.90;999.90;;;6.00;84.10;;;;;;5050429;28;20136;-79
2023/12/15 11:33:32;;;;;;;1999.90;999.90;;;6.10;83.10;;;;;;5042662;28;20035;-79
2023/12/15 11:36:09;;;;;;;1999.90;999.90;;;6.20;82.50;;;;;;5042291;28;20491;-81
2023/12/15 11:38:35;;;;;;;1999.90;999.90;;;6.30;81.90;;;;;;5044613;28;20029;-79
2023/12/15 11:41:04;;;;;;;1999.90;999.90;;;6.30;81.60;;;;;;5042597;28;20746;-77
2023/12/15 11:43:36;;;;;;;1999.90;999.90;;;6.20;82.40;;;;;;5045930;28;20040;-77
2023/12/15 11:46:05;;;;;;;1999.90;999.90;;;6.30;82.60;;;;;;5044878;28;20467;-77
2023/12/15 11:48:34;;;;;;;1999.90;999.90;;;6.30;82.70;;;;;;5043256;28;20514;-80
2023/12/15 11:51:02;;;;;;;1999.90;999.90;;;6.20;83.30;;;;;;5026095;28;20090;-79
2023/12/15 11:53:28;;;;;;;1999.90;999.90;;;6.20;81.30;;;;;;5042932;28;20021;-83
2023/12/15 11:55:55;;;;;;;1999.90;999.90;;;6.20;82.80;;;;;;5045844;28;20056;-80
2023/12/15 11:58:22;;;;;;;1999.90;999.90;;;6.10;81.60;;;;;;5043842;28;20505;-79
2023/12/15 12:00:48;;;;;;;1999.90;999.90;;;6.10;82.90;;;;;;5043030;28;20033;-75
2023/12/15 12:03:19;;;;;;;1999.90;999.90;;;6.30;81.70;;;;;;5041320;28;20091;-77
2023/12/15 12:05:45;;;;;;;1999.90;999.90;;;6.40;81.60;;;;;;5044487;28;20550;-76